Skip Navigation Links Skip Navigation Links

Current Weather

Pittsburgh International, Pittsburgh, Penn.

For information only: do not use for flight planning or navigation.
Latest weather
Observation time Friday, December 4, 2020 2:51 AM EST
Local time Friday, December 4, 2020 3:24 AM EST
Flight conditions Visual Meteorological Conditions
Winds
Wind direction South (180°)
Wind speed 5 mph
Visibility 10 mi.
Sky condition
Ceiling 7,000 ft. broken clouds
Cloud layer broken clouds 7,000 ft.
Cloud layer overcast 9,500 ft.
Temperature 36°F
Dewpoint 23°F
Altimeter 30.03 in.Hg
Derived measurements
Relative humidity 59%
Wind chill 32°F
Density altitude -410 ft.
Sea-level pressure 30.09 in.Hg
Remarks
Automated weather observing station with precipitation discriminator.
METAR KPIT 040751Z 18004KT 10SM BKN070 OVC095 02/M05 A3003 RMK AO2 SLP188 T00221050

Settings

Location code

InnerDrive.Weather 4.0.6770.0 Release CLR 4.0.30319.42000
Copyright ©2018 Inner Drive Technology. All rights reserved. Portions Copyright ©1986-2018 David Braverman.

Find weather

Site navigation


Skip Navigation Links

Place info

Page info

PayPal - The safer, easier way to pay online!

Return home.

Copyright ©2020 Inner Drive Technology. Purveyors of fine, hand-crafted computer software. Page printed 2020-12-04T08:24:04 UTC.